Latest Weather Observations for Dwellingup

IDW60801

Issued at 7:32 pm WST Wednesday 1 July 2015 (issued every 30 minutes, with the page automatically refreshed every 10 minutes)

About weather observations | Map of weather stations | Latest weather observations for WA | Other Formats
Station Details ID: 009538 Name: DWELLINGUP Lat: -32.71 Lon: 116.06 Height: 267.0 m
Data from the previous 72 hours. | See also: Recent months at Dwellingup
Date/Time
WST
Temp
°C
App
Temp
°C
Dew
Point
Rel
Hum
%
Delta-T
°C
Wind Press
QNH
hPa
Press
MSL
hPa
Rain
since 9 am
mm
Dir
 
Spd
km/h
Gust
km/h
Spd
kts
Gust
kts
01/07:30pm 14.7 12.8 8.9 68 3.0 NNE 9 13 5 7 1024.8 1025.0 0.0
01/07:00pm 14.7 12.1 9.3 70 2.8 NNE 13 19 7 10 1024.5 1024.7 0.0
01/06:30pm 15.1 12.5 9.5 69 2.9 N 13 19 7 10 1024.7 1024.9 0.0
01/06:00pm 15.3 13.5 10.9 75 2.4 NNE 11 15 6 8 1024.4 1024.6 0.0
01/05:30pm 14.8 13.7 11.9 83 1.6 NNE 9 11 5 6 1024.3 1024.5 0.0
01/05:00pm 15.1 14.0 11.9 81 1.7 NNE 9 11 5 6 1024.1 1024.3 0.0
01/04:30pm 15.4 16.0 11.8 79 2.0 CALM 0 0 0 0 1024.0 1024.2 0.0
01/04:00pm 16.2 16.4 12.0 76 2.3 NNE 2 7 1 4 1024.1 1024.3 0.0
01/03:30pm 16.2 16.4 11.8 75 2.4 NE 2 7 1 4 1023.8 1024.0 0.0
01/03:00pm 17.1 17.5 11.2 68 3.2 CALM 0 0 0 0 1023.6 1023.8 0.0
01/02:30pm 17.0 17.0 11.1 68 3.2 ESE 2 6 1 3 1023.6 1023.8 0.0
01/02:00pm 17.0 17.5 11.5 70 3.0 CALM 0 0 0 0 1023.7 1023.9 0.0
01/01:30pm 17.1 17.5 11.2 68 3.2 CALM 0 7 0 4 1023.7 1023.9 0.0
01/01:00pm 17.2 - 11.2 68 3.3 - - - - - 1023.8 1024.0 0.0
01/12:30pm 17.1 - 11.6 70 3.0 - - - - - 1024.2 1024.4 0.0
01/12:00pm 17.1 - 11.2 68 3.2 - - - - - 1024.4 1024.6 0.0
01/11:30am 16.7 - 11.2 70 3.0 - - - - - 1024.6 1024.8 0.0
01/11:00am 16.4 - 11.6 73 2.6 - - - - - 1024.9 1025.1 0.0
01/10:30am 15.4 - 11.2 76 2.3 - - - - - 1025.0 1025.2 0.0
01/10:00am 13.7 - 10.1 79 1.9 - - - - - 1024.8 1025.0 0.0
01/09:30am 11.9 - 10.0 88 1.0 - - - - - 1024.8 1025.0 0.0
01/09:00am 10.5 - 9.1 91 0.7 - - - - - 1024.8 1025.0 0.0
01/08:30am 9.2 - 8.1 93 0.5 - - - - - 1024.4 1024.6 0.0
01/08:00am 7.8 - 6.7 93 0.5 - - - - - 1024.6 1024.8 0.0
01/07:30am 7.6 - 6.5 93 0.5 - - - - - 1024.5 1024.6 0.0
01/07:00am 7.9 - 6.7 92 0.6 - - - - - 1024.1 1024.2 0.0
01/06:30am 8.3 - 7.1 92 0.6 - - - - - 1023.7 1023.8 0.0
01/06:00am 8.8 - 7.6 92 0.6 - - - - - 1023.7 1023.8 0.0
01/05:30am 8.9 - 7.7 92 0.6 - - - - - 1023.4 1023.6 0.0
01/05:00am 8.9 - 7.7 92 0.6 - - - - - 1023.7 1023.8 0.0
01/04:30am 8.9 - 7.5 91 0.7 - - - - - 1023.4 1023.6 0.0
01/04:00am 9.0 - 7.6 91 0.7 - - - - - 1023.6 1023.7 0.0
01/03:30am 9.4 - 7.8 90 0.8 - - - - - 1023.9 1024.0 0.0
01/03:00am 10.2 - 8.5 89 0.8 - - - - - 1024.0 1024.1 0.0
01/02:30am 10.5 - 8.8 89 0.9 - - - - - 1023.7 1023.8 0.0
01/02:00am 10.6 - 8.9 89 0.8 - - - - - 1023.4 1023.6 0.0
01/01:30am 10.6 - 8.9 89 0.9 - - - - - 1023.8 1023.9 0.0
01/01:00am 10.6 - 8.7 88 0.9 - - - - - 1023.4 1023.6 0.0
01/12:30am 10.8 - 8.9 88 0.9 - - - - - 1023.6 1023.7 0.0
01/12:00am 10.8 - 8.9 88 0.9 - - - - - 1024.1 1024.2 0.0
 
Date/Time
WST
Temp
°C
App
Temp
°C
Dew
Point
Rel
Hum
%
Delta-T
°C
Wind Press
QNH
hPa
Press
MSL
hPa
Rain
since 9 am
mm
Dir
 
Spd
km/h
Gust
km/h
Spd
kts
Gust
kts
30/11:30pm 10.9 - 8.8 87 1.1 - - - - - 1024.0 1024.1 0.0
30/11:00pm 11.0 - 9.1 88 1.0 - - - - - 1023.6 1023.7 0.0
30/10:30pm 11.0 - 8.9 87 1.1 - - - - - 1023.9 1024.0 0.0
30/10:00pm 11.0 - 8.9 87 1.1 - - - - - 1023.3 1023.5 0.0
30/09:30pm 11.2 - 8.9 86 1.2 - - - - - 1024.0 1024.1 0.0
30/09:00pm 11.3 - 9.0 86 1.2 - - - - - 1023.3 1023.5 0.0
30/08:30pm 11.5 - 9.1 85 1.2 - - - - - 1023.3 1023.5 0.0
30/08:00pm 11.9 - 9.1 83 1.4 - - - - - 1024.1 1024.2 0.0
30/07:30pm 12.1 - 9.1 82 1.5 - - - - - 1023.3 1023.5 0.0
30/07:00pm 12.4 - 9.2 81 1.6 - - - - - 1023.6 1023.7 0.0
30/06:30pm 12.8 - 9.1 78 1.9 - - - - - 1022.8 1022.9 0.0
30/06:00pm 13.4 - 9.3 76 2.1 - - - - - 1022.6 1022.7 0.0
30/05:30pm 14.0 - 9.4 74 2.4 - - - - - 1022.4 1022.5 0.0
30/05:00pm 14.6 - 9.8 73 2.5 - - - - - 1022.6 1022.7 0.0
30/04:30pm 16.0 - 9.9 67 3.2 - - - - - 1022.5 1022.6 0.0
30/04:00pm 17.2 - 9.4 60 4.1 - - - - - 1022.5 1022.6 0.0
30/03:30pm 18.6 - 8.0 50 5.5 - - - - - 1022.3 1022.4 0.0
30/03:00pm 19.3 - 8.0 48 5.9 - - - - - 1022.3 1022.4 0.0
30/02:30pm 19.0 - 8.6 51 5.5 - - - - - 1022.4 1022.5 0.0
30/02:00pm 18.6 - 9.7 56 4.8 - - - - - 1022.1 1022.2 0.0
30/01:30pm 17.0 - 9.2 60 4.1 - - - - - 1021.7 1021.8 0.0
30/01:00pm 17.1 - 8.3 56 4.5 - - - - - 1022.1 1022.2 0.0
30/12:30pm 17.3 - 7.9 54 4.8 - - - - - 1022.3 1022.4 0.0
30/12:00pm 16.4 - 7.9 57 4.3 - - - - - 1022.9 1023.1 0.0
30/11:30am 15.5 - 7.8 60 3.9 - - - - - 1023.6 1023.7 0.0
30/11:00am 15.7 - 6.7 55 4.4 - - - - - 1024.1 1024.2 0.0
30/10:30am 13.6 - 7.2 65 3.2 - - - - - 1024.3 1024.4 0.0
30/10:00am 11.6 - 7.3 75 2.1 - - - - - 1024.4 1024.5 0.0
30/09:30am 9.2 - 7.3 88 0.9 - - - - - 1024.3 1024.4 0.0
30/09:00am 7.6 - 6.4 92 0.6 - - - - - 1024.1 1024.2 0.0
30/08:30am 5.5 - 4.5 93 0.4 - - - - - 1023.9 1024.0 0.0
30/08:00am 4.7 - 3.7 93 0.4 - - - - - 1023.2 1023.4 0.0
30/07:30am 4.5 - 3.5 93 0.4 - - - - - 1023.6 1023.7 0.0
30/07:00am 4.2 - 3.2 93 0.4 - - - - - 1023.7 1023.8 0.0
30/06:30am 4.1 - 3.1 93 0.4 - - - - - 1023.6 1023.7 0.0
30/06:00am 4.1 - 3.1 93 0.4 - - - - - 1023.4 1023.6 0.0
30/05:30am 4.1 - 3.1 93 0.4 - - - - - 1023.3 1023.5 0.0
30/05:00am 4.3 - 3.3 93 0.4 - - - - - 1023.2 1023.4 0.0
30/04:30am 4.4 - 3.4 93 0.4 - - - - - 1023.2 1023.4 0.0
30/04:00am 4.4 - 3.4 93 0.4 - - - - - 1023.0 1023.2 0.0
30/03:30am 4.5 - 3.5 93 0.4 - - - - - 1023.0 1023.2 0.0
30/03:00am 4.9 - 3.9 93 0.4 - - - - - 1023.2 1023.4 0.0
30/02:30am 5.0 - 3.8 92 0.5 - - - - - 1023.8 1023.9 0.0
30/02:00am 5.3 - 4.1 92 0.5 - - - - - 1023.7 1023.8 0.0
30/01:30am 5.5 - 4.3 92 0.5 - - - - - 1023.9 1024.0 0.0
30/01:00am 5.7 - 4.5 92 0.5 - - - - - 1023.1 1023.3 0.0
30/12:30am 6.0 - 4.8 92 0.5 - - - - - 1023.4 1023.6 0.0
30/12:00am 6.5 - 5.1 91 0.6 - - - - - 1023.6 1023.7 0.0
 
Date/Time
WST
Temp
°C
App
Temp
°C
Dew
Point
Rel
Hum
%
Delta-T
°C
Wind Press
QNH
hPa
Press
MSL
hPa
Rain
since 9 am
mm
Dir
 
Spd
km/h
Gust
km/h
Spd
kts
Gust
kts
29/11:30pm 6.7 - 5.3 91 0.6 - - - - - 1023.8 1023.9 0.0
29/11:00pm 6.9 - 5.5 91 0.6 - - - - - 1023.7 1023.8 0.0
29/10:30pm 7.1 - 5.6 90 0.7 - - - - - 1023.9 1024.0 0.0
29/10:00pm 7.6 - 6.1 90 0.7 - - - - - 1024.1 1024.2 0.0
29/09:30pm 7.9 - 6.2 89 0.8 - - - - - 1024.3 1024.4 0.0
29/09:00pm 8.4 - 6.5 88 0.9 - - - - - 1024.5 1024.6 0.0
29/08:30pm 8.6 - 6.6 87 0.9 - - - - - 1024.3 1024.4 0.0
29/08:00pm 9.2 - 7.2 87 1.0 - - - - - 1023.9 1024.0 0.0
29/07:30pm 9.6 - 7.5 87 1.0 - - - - - 1024.0 1024.1 0.0
29/07:00pm 10.0 - 7.6 85 1.2 - - - - - 1023.9 1024.0 0.0
29/06:30pm 11.1 - 8.0 81 1.5 - - - - - 1024.1 1024.2 0.0
29/06:00pm 11.9 - 8.2 78 1.8 - - - - - 1024.1 1024.2 0.0
29/05:30pm 13.2 - 8.9 75 2.2 - - - - - 1023.9 1024.0 0.0
29/05:00pm 15.1 - 9.0 67 3.1 - - - - - 1023.9 1024.0 0.0
29/04:30pm 17.4 - 8.5 56 4.6 - - - - - 1023.9 1024.0 0.0
29/04:00pm 18.8 - 7.6 48 5.8 - - - - - 1023.7 1023.8 0.0
29/03:30pm 19.9 - 4.8 37 7.4 - - - - - 1023.7 1023.8 0.0
29/03:00pm 19.9 - 4.0 35 7.7 - - - - - 1023.7 1023.8 0.0
29/02:30pm 19.7 - 4.6 37 7.4 - - - - - 1023.8 1023.9 0.0
29/02:00pm 19.7 - 3.8 35 7.6 - - - - - 1024.0 1024.1 0.0
29/01:30pm 19.7 - 4.2 36 7.5 - - - - - 1024.1 1024.2 0.0
29/01:00pm 19.4 - 6.5 43 6.5 - - - - - 1024.4 1024.5 0.0
29/12:30pm 18.8 - 6.0 43 6.4 - - - - - 1024.7 1024.8 0.0
29/12:00pm 17.9 - 6.4 47 5.7 - - - - - 1025.1 1025.2 0.0
29/11:30am 16.6 - 6.4 51 5.1 - - - - - 1025.6 1025.7 0.0
29/11:00am 14.8 - 7.4 61 3.7 - - - - - 1025.8 1025.9 0.0
29/10:30am 12.2 - 7.5 73 2.3 - - - - - 1026.2 1026.4 0.0
29/10:00am 9.7 - 7.5 86 1.1 - - - - - 1026.5 1026.7 0.0
29/09:30am 7.9 - 6.7 92 0.6 - - - - - 1026.5 1026.7 0.0
29/09:00am 6.6 - 5.7 94 0.4 - - - - - 1026.4 1026.6 0.0
29/08:30am 5.1 - 4.2 94 0.4 - - - - - 1026.3 1026.5 0.0
29/08:00am 3.4 - 2.5 94 0.4 - - - - - 1026.2 1026.4 0.0
29/07:30am 2.9 - 2.0 94 0.4 - - - - - 1026.0 1026.1 0.0
29/07:00am 3.2 - 2.3 94 0.4 - - - - - 1025.8 1025.9 0.0
29/06:30am 3.4 - 2.5 94 0.4 - - - - - 1025.8 1025.9 0.0
29/06:00am 3.6 - 2.7 94 0.4 - - - - - 1025.8 1025.9 0.0
29/05:30am 4.2 - 3.3 94 0.4 - - - - - 1025.8 1025.9 0.0
29/05:00am 3.9 - 3.0 94 0.4 - - - - - 1025.8 1025.9 0.0
29/04:30am 4.0 - 3.0 93 0.4 - - - - - 1025.7 1025.8 0.0
29/04:00am 4.1 - 3.1 93 0.4 - - - - - 1025.9 1026.0 0.0
29/03:30am 4.4 - 3.4 93 0.4 - - - - - 1026.3 1026.5 0.0
29/03:00am 4.5 - 3.5 93 0.4 - - - - - 1026.4 1026.6 0.0
29/02:30am 4.6 - 3.6 93 0.4 - - - - - 1026.7 1026.9 0.0
29/02:00am 4.8 - 3.8 93 0.4 - - - - - 1026.8 1027.0 0.0
29/01:30am 4.8 - 3.6 92 0.5 - - - - - 1027.1 1027.3 0.0
29/01:00am 5.0 - 3.8 92 0.5 - - - - - 1027.0 1027.2 0.0
29/12:30am 5.3 - 4.1 92 0.5 - - - - - 1027.3 1027.5 0.0
29/12:00am 5.5 - 4.3 92 0.5 - - - - - 1027.2 1027.4 0.0
 
Date/Time
WST
Temp
°C
App
Temp
°C
Dew
Point
Rel
Hum
%
Delta-T
°C
Wind Press
QNH
hPa
Press
MSL
hPa
Rain
since 9 am
mm
Dir
 
Spd
km/h
Gust
km/h
Spd
kts
Gust
kts
28/11:30pm 5.9 - 4.7 92 0.5 - - - - - 1028.0 1028.1 0.0
28/11:00pm 5.7 - 4.3 91 0.6 - - - - - 1028.0 1028.1 0.0
28/10:30pm 6.1 - 4.6 90 0.7 - - - - - 1028.0 1028.1 0.0
28/10:00pm 6.5 - 5.0 90 0.7 - - - - - 1028.0 1028.1 0.0
28/09:30pm 6.9 - 5.2 89 0.8 - - - - - 1028.1 1028.2 0.0
28/09:00pm 7.3 - 5.4 88 0.9 - - - - - 1028.1 1028.2 0.0
28/08:30pm 7.8 - 5.8 87 0.9 - - - - - 1028.1 1028.2 0.0
28/08:00pm 8.2 - 6.2 87 0.9 - - - - - 1027.9 1028.0 0.0

Other Formats:

Comma delimited format used in spreadsheet applications
http://www.bom.gov.au/fwo/IDW60801/IDW60801.94620.axf

JavaScript Object Notation format (JSON) in row-major order
http://www.bom.gov.au/fwo/IDW60801/IDW60801.94620.json